LECO

A Coruña Airport

Culleredo, Spain
TAF COR LECO 212041Z 2121/2221 35005KT 9999 SCT010 BKN030 TX24/2215Z TN14/2206Z TEMPO 2121/2208 BKN010 PROB40 TEMPO 2121/2208 3000 -RADZ BR BKN010 PROB30 TEMPO 2203/2207 0800 BCFG BKN002 PROB40 TEMPO 2214/2220 01015KT
Issued Valid From Valid To
Jul-21 @ 20:41 UTC
(2 hours ago)
Jul-21 @ 21:00 UTC
(2 hours ago)
Jul-22 @ 21:00 UTC
(in 22 hours)
Jul-21 @ 21:00 to Jul-22 @ 21:00
TAF COR LECO 212041Z 2121/2221 35005KT 9999 SCT010 BKN030 TX24/2215Z TN14/2206Z
Wind Visibility Clouds
350° at 5 knots 10,000+ meters
  • Scattered at 1,000' AGL
  • Broken at 3,000' AGL
Temporary Jul-21 @ 21:00 to Jul-22 @ 08:00
TEMPO 2121/2208 BKN010
Clouds
  • Broken at 1,000' AGL
Temporary  (Probability 40%) Jul-21 @ 21:00 to Jul-22 @ 08:00
PROB40 TEMPO 2121/2208 3000 -RADZ BR BKN010
Visibility Clouds Conditions
2,993 meters
  • Broken at 1,000' AGL
  • Light Rain
  • Light Drizzle
  • Mist
Temporary  (Probability 30%) Jul-22 @ 03:00 to Jul-22 @ 07:00
PROB30 TEMPO 2203/2207 0800 BCFG BKN002
Visibility Clouds Conditions
805 meters
  • Broken at 200' AGL
  • Patches of
  • Fog
Temporary  (Probability 40%) Jul-22 @ 14:00 to Jul-22 @ 20:00
PROB40 TEMPO 2214/2220 01015KT
Wind
10° at 15 knots
TAF COR LECO 212041Z 2121/2221 35005KT 9999 SCT010 BKN030 TX24/2215Z TN14/2206Z TEMPO 2121/2208 BKN010 PROB40 TEMPO 2121/2208 3000 -RADZ BR BKN010 PROB30 TEMPO 2203/2207 0800 BCFG BKN002 PROB40 TEMPO 2214/2220 01015KT
Issued Jul-21 @ 20:41 UTC
(2 hours ago)
Valid From Jul-21 @ 21:00 UTC
(2 hours ago)
Valid To Jul-22 @ 21:00 UTC
(in 22 hours)
Jul-21 @ 21:00 - Jul-22 @ 21:00
Wind Visibility
350° at 5 knots 10,000+ meters
Clouds
  • Scattered at 1,000' AGL
  • Broken at 3,000' AGL
Temporary Jul-21 @ 21:00 - Jul-22 @ 08:00
Clouds
  • Broken at 1,000' AGL
Probability 40% Temporary Jul-21 @ 21:00 - Jul-22 @ 08:00
Clouds
  • Broken at 1,000' AGL
Conditions
  • Light Rain
  • Light Drizzle
  • Mist
Probability 30% Temporary Jul-22 @ 03:00 - Jul-22 @ 07:00
Clouds
  • Broken at 200' AGL
Conditions
  • Patches of
  • Fog
Probability 40% Temporary Jul-22 @ 14:00 - Jul-22 @ 20:00
Wind
10° at 15 knots